createdAt,value
2023-02-08T00:00:31.817Z,-1.00
2023-02-08T00:03:17.536Z,-0.98
2023-02-08T00:06:04.108Z,-0.99
2023-02-08T00:08:49.269Z,-1.11
2023-02-08T00:11:35.229Z,-0.98
2023-02-08T00:14:20.713Z,-1.05
2023-02-08T00:17:06.150Z,-0.98
2023-02-08T00:19:51.479Z,-1.05
2023-02-08T00:22:36.892Z,-1.01
2023-02-08T00:25:21.831Z,-1.04
2023-02-08T00:28:11.694Z,-1.06
2023-02-08T00:30:57.503Z,-1.20
2023-02-08T00:33:42.493Z,-1.14
2023-02-08T00:36:27.853Z,-1.02
2023-02-08T00:39:13.204Z,-1.13
2023-02-08T00:41:58.547Z,-1.24
2023-02-08T00:44:43.664Z,-1.24
2023-02-08T00:47:28.766Z,-1.10
2023-02-08T00:50:14.468Z,-1.05
2023-02-08T00:53:00.275Z,-1.05
2023-02-08T00:55:53.482Z,-1.14
2023-02-08T00:58:39.552Z,-1.20
2023-02-08T01:01:24.688Z,-1.43
2023-02-08T01:04:10.586Z,-1.65
2023-02-08T01:06:55.915Z,-1.63
2023-02-08T01:09:41.569Z,-1.72
2023-02-08T01:12:26.732Z,-1.82
2023-02-08T01:15:12.131Z,-1.75
2023-02-08T01:17:57.465Z,-1.94
2023-02-08T01:20:42.955Z,-2.04
2023-02-08T01:23:28.354Z,-1.82
2023-02-08T01:26:15.595Z,-1.85
2023-02-08T01:29:01.273Z,-2.06
2023-02-08T01:31:46.630Z,-2.19
2023-02-08T01:34:32.002Z,-2.23
2023-02-08T01:37:16.957Z,-2.19
2023-02-08T01:40:01.941Z,-2.33
2023-02-08T01:42:47.327Z,-2.35
2023-02-08T01:45:32.711Z,-2.51
2023-02-08T01:48:44.184Z,-2.54
2023-02-08T01:51:33.933Z,-2.55
2023-02-08T01:54:21.440Z,-2.34
2023-02-08T01:57:07.504Z,-2.23
2023-02-08T01:59:58.938Z,-2.32
2023-02-08T02:02:46.062Z,-2.33
2023-02-08T02:05:40.924Z,-2.57
2023-02-08T02:08:26.434Z,-2.56
2023-02-08T02:11:11.684Z,-2.66
2023-02-08T02:13:58.423Z,-2.58
2023-02-08T02:16:43.597Z,-2.62
2023-02-08T02:20:14.437Z,-2.75
2023-02-08T02:23:02.714Z,-2.81
2023-02-08T02:26:25.274Z,-2.70
2023-02-08T02:29:45.098Z,-2.73
2023-02-08T02:32:33.243Z,-2.86
2023-02-08T02:35:34.572Z,-2.79
2023-02-08T02:38:38.805Z,-2.63
2023-02-08T02:41:40.764Z,-2.55
2023-02-08T02:44:47.866Z,-2.80
2023-02-08T02:47:46.593Z,-2.77
2023-02-08T02:50:42.979Z,-2.76
2023-02-08T02:53:45.804Z,-2.75
2023-02-08T02:56:36.875Z,-2.81
2023-02-08T02:59:22.978Z,-2.78
2023-02-08T03:02:08.519Z,-2.83
2023-02-08T03:04:56.519Z,-2.81
2023-02-08T03:08:00.116Z,-2.71
2023-02-08T03:10:57.629Z,-2.63
2023-02-08T03:13:45.900Z,-2.57
2023-02-08T03:16:57.739Z,-2.61
2023-02-08T03:20:03.001Z,-2.68
2023-02-08T03:23:16.529Z,-2.67
2023-02-08T03:26:04.537Z,-2.81
2023-02-08T03:28:59.778Z,-2.97
2023-02-08T03:31:55.987Z,-2.96
2023-02-08T03:35:05.335Z,-2.69
2023-02-08T03:37:55.326Z,-2.58
2023-02-08T03:40:47.473Z,-2.57
2023-02-08T03:43:44.913Z,-2.74
2023-02-08T03:46:39.144Z,-2.86
2023-02-08T03:49:31.197Z,-2.82
2023-02-08T03:52:16.896Z,-2.81
2023-02-08T03:55:08.823Z,-2.78
2023-02-08T03:58:08.384Z,-2.73
2023-02-08T04:01:02.908Z,-2.93
2023-02-08T04:03:50.162Z,-2.96
2023-02-08T04:06:35.599Z,-3.05
2023-02-08T04:09:20.875Z,-3.12
2023-02-08T04:12:06.412Z,-3.13
2023-02-08T04:14:51.355Z,-3.26
2023-02-08T04:17:36.577Z,-3.29
2023-02-08T04:20:21.682Z,-3.24
2023-02-08T04:23:07.120Z,-3.23
2023-02-08T04:25:55.031Z,-3.43
2023-02-08T04:28:40.366Z,-3.35
2023-02-08T04:31:25.642Z,-3.40
2023-02-08T04:34:10.966Z,-3.43
2023-02-08T04:36:56.390Z,-3.46
2023-02-08T04:39:41.677Z,-3.39
2023-02-08T04:42:27.048Z,-3.46
2023-02-08T04:45:12.398Z,-3.46
2023-02-08T04:47:59.231Z,-3.33
2023-02-08T04:50:44.709Z,-3.18
2023-02-08T04:53:29.846Z,-3.31
2023-02-08T04:56:15.293Z,-3.53
2023-02-08T04:59:01.446Z,-3.54
2023-02-08T05:01:46.374Z,-3.64
2023-02-08T05:04:31.670Z,-3.57
2023-02-08T05:07:16.636Z,-3.45
2023-02-08T05:10:01.692Z,-3.63
2023-02-08T05:12:46.970Z,-3.65
2023-02-08T05:15:32.021Z,-3.72
2023-02-08T05:18:16.885Z,-3.72
2023-02-08T05:21:02.308Z,-3.67
2023-02-08T05:23:47.568Z,-3.97
2023-02-08T05:26:32.728Z,-4.12
2023-02-08T05:29:18.043Z,-4.16
2023-02-08T05:32:03.504Z,-4.03
2023-02-08T05:34:48.757Z,-3.98
2023-02-08T05:37:34.130Z,-4.08
2023-02-08T05:40:21.670Z,-4.22
2023-02-08T05:43:06.776Z,-4.29
2023-02-08T05:45:52.193Z,-4.19
2023-02-08T05:48:37.819Z,-4.24
2023-02-08T05:51:23.128Z,-4.30
2023-02-08T05:54:08.325Z,-4.30
2023-02-08T05:56:53.567Z,-4.34
2023-02-08T05:59:38.860Z,-4.38
2023-02-08T06:02:24.360Z,-4.40
2023-02-08T06:05:09.813Z,-4.36
2023-02-08T06:07:55.243Z,-4.48
2023-02-08T06:10:40.895Z,-4.47
2023-02-08T06:13:26.349Z,-4.42
2023-02-08T06:16:12.674Z,-4.51
2023-02-08T06:18:58.082Z,-4.49
2023-02-08T06:21:43.524Z,-4.47
2023-02-08T06:24:29.014Z,-4.51
2023-02-08T06:27:14.655Z,-4.61
2023-02-08T06:29:59.939Z,-4.53
2023-02-08T06:32:45.195Z,-4.54
2023-02-08T06:35:30.969Z,-4.57
2023-02-08T06:38:16.520Z,-4.48
2023-02-08T06:41:01.588Z,-4.57
2023-02-08T06:43:47.349Z,-4.68
2023-02-08T06:46:32.275Z,-4.72
2023-02-08T06:49:17.217Z,-4.78
2023-02-08T06:52:02.625Z,-4.67
2023-02-08T06:54:48.101Z,-4.63
2023-02-08T06:57:33.588Z,-4.56
2023-02-08T07:00:19.017Z,-4.47
2023-02-08T07:03:04.223Z,-4.54
2023-02-08T07:06:03.796Z,-4.57
2023-02-08T07:08:49.877Z,-4.46
2023-02-08T07:11:35.267Z,-4.38
2023-02-08T07:14:20.837Z,-4.39
2023-02-08T07:17:06.059Z,-4.43
2023-02-08T07:19:50.849Z,-4.55
2023-02-08T07:22:36.168Z,-4.49
2023-02-08T07:25:21.525Z,-4.54
2023-02-08T07:28:07.057Z,-4.51
2023-02-08T07:30:52.699Z,-4.42
2023-02-08T07:33:38.347Z,-4.36
2023-02-08T07:36:23.480Z,-4.18
2023-02-08T07:39:08.780Z,-4.25
2023-02-08T07:41:53.765Z,-4.19
2023-02-08T07:44:39.831Z,-4.11
2023-02-08T07:47:25.077Z,-3.98
2023-02-08T07:50:10.577Z,-3.81
2023-02-08T07:52:55.924Z,-3.67
2023-02-08T07:55:41.452Z,-3.52
2023-02-08T07:58:27.175Z,-3.36
2023-02-08T08:01:21.915Z,-3.21
2023-02-08T08:04:07.805Z,-3.10
2023-02-08T08:06:53.046Z,-3.02
2023-02-08T08:09:37.929Z,-2.86
2023-02-08T08:12:23.458Z,-2.68
2023-02-08T08:15:09.085Z,-2.47
2023-02-08T08:17:54.504Z,-2.40
2023-02-08T08:20:39.816Z,-2.26
2023-02-08T08:23:24.997Z,-2.11
2023-02-08T08:26:14.876Z,-2.04
2023-02-08T08:29:00.677Z,-1.87
2023-02-08T08:31:45.964Z,-1.75
2023-02-08T08:34:31.491Z,-1.49
2023-02-08T08:37:16.670Z,-1.45
2023-02-08T08:40:03.414Z,-1.37
2023-02-08T08:42:48.525Z,-1.18
2023-02-08T08:45:34.136Z,-1.09
2023-02-08T08:48:19.477Z,-0.96
2023-02-08T08:51:05.153Z,-0.96
2023-02-08T08:53:50.292Z,-0.82
2023-02-08T08:56:35.788Z,-0.69
2023-02-08T08:59:22.420Z,-0.60
2023-02-08T09:02:07.525Z,-0.60
2023-02-08T09:04:52.600Z,-0.53
2023-02-08T09:07:37.652Z,-0.39
2023-02-08T09:10:23.201Z,-0.29
2023-02-08T09:13:08.903Z,-0.22
2023-02-08T09:15:54.211Z,-0.13
2023-02-08T09:18:40.179Z,-0.09
2023-02-08T09:21:25.341Z,-0.07
2023-02-08T09:24:11.246Z,0.12
2023-02-08T09:26:56.590Z,0.18
2023-02-08T09:29:42.010Z,0.33
2023-02-08T09:32:27.436Z,0.46
2023-02-08T09:35:12.973Z,0.52
2023-02-08T09:37:59.440Z,0.67
2023-02-08T09:40:54.006Z,0.83
2023-02-08T09:43:54.285Z,0.99
2023-02-08T09:46:45.035Z,1.15
2023-02-08T09:49:35.912Z,1.17
2023-02-08T09:52:26.071Z,1.20
2023-02-08T09:55:36.294Z,1.33
2023-02-08T09:58:40.188Z,1.52
2023-02-08T10:01:32.650Z,1.58
2023-02-08T10:04:54.570Z,1.71
2023-02-08T10:07:41.542Z,1.85
2023-02-08T10:10:41.284Z,1.96
2023-02-08T10:13:40.676Z,2.14
2023-02-08T10:16:29.574Z,2.23
2023-02-08T10:19:23.938Z,2.39
2023-02-08T10:22:21.869Z,2.42
2023-02-08T10:25:53.828Z,2.61
2023-02-08T10:28:41.960Z,2.91
2023-02-08T10:31:55.111Z,3.20
2023-02-08T10:34:53.505Z,3.72
2023-02-08T10:37:41.616Z,4.19
2023-02-08T10:40:32.539Z,4.25
2023-02-08T10:43:26.658Z,4.61
2023-02-08T10:46:12.021Z,4.78
2023-02-08T10:49:05.670Z,4.98
2023-02-08T10:51:52.741Z,5.10
2023-02-08T10:54:37.878Z,4.83
2023-02-08T10:57:34.687Z,5.37
2023-02-08T11:00:32.281Z,5.37
2023-02-08T11:03:23.838Z,5.34
2023-02-08T11:06:26.822Z,5.77
2023-02-08T11:09:30.617Z,5.07
2023-02-08T11:12:21.506Z,5.79
2023-02-08T11:15:22.608Z,5.62
2023-02-08T11:18:24.868Z,5.19
2023-02-08T11:21:28.819Z,5.62
2023-02-08T11:24:37.677Z,6.39
2023-02-08T11:27:28.570Z,6.98
2023-02-08T11:30:13.431Z,7.32
2023-02-08T11:33:29.328Z,7.39
2023-02-08T11:36:14.521Z,7.47
2023-02-08T11:39:17.487Z,7.56
2023-02-08T11:42:03.745Z,7.50
2023-02-08T11:44:49.481Z,7.07
2023-02-08T11:47:37.309Z,6.53
2023-02-08T11:50:36.040Z,6.72
2023-02-08T11:53:33.407Z,7.09
2023-02-08T11:56:21.770Z,6.95
2023-02-08T11:59:10.036Z,7.27
2023-02-08T12:01:54.968Z,7.26
2023-02-08T12:04:40.096Z,7.45
2023-02-08T12:07:40.096Z,7.75
2023-02-08T12:10:47.422Z,7.86
2023-02-08T12:13:45.076Z,7.28
2023-02-08T12:16:52.348Z,7.46
2023-02-08T12:19:40.605Z,7.63
2023-02-08T12:22:28.316Z,7.34
2023-02-08T12:25:32.858Z,7.82
2023-02-08T12:28:56.028Z,7.57
2023-02-08T12:31:53.840Z,7.90
2023-02-08T12:34:54.962Z,8.41
2023-02-08T12:38:17.946Z,8.08
2023-02-08T12:41:08.389Z,7.94
2023-02-08T12:44:05.735Z,8.46
2023-02-08T12:47:04.144Z,8.39
2023-02-08T12:50:16.001Z,8.64
2023-02-08T12:53:09.468Z,8.85
2023-02-08T13:01:42.825Z,8.73
2023-02-08T13:04:38.310Z,8.84
2023-02-08T13:07:55.182Z,9.05
2023-02-08T13:10:42.596Z,9.36
2023-02-08T13:13:33.737Z,9.69
2023-02-08T13:16:23.171Z,9.15
2023-02-08T13:19:59.124Z,9.76
2023-02-08T13:22:46.292Z,9.45
2023-02-08T13:25:35.868Z,9.32
2023-02-08T13:28:23.823Z,9.47
2023-02-08T13:31:17.529Z,9.32
2023-02-08T13:34:24.740Z,9.91
2023-02-08T13:37:27.908Z,10.13
2023-02-08T13:40:22.522Z,10.14
2023-02-08T13:43:35.988Z,10.06
2023-02-08T13:46:24.517Z,11.10
2023-02-08T13:49:48.296Z,8.88
2023-02-08T13:52:46.485Z,9.81
2023-02-08T13:55:32.906Z,10.30
2023-02-08T13:58:37.572Z,10.69
2023-02-08T14:01:28.595Z,10.86
2023-02-08T14:04:13.668Z,9.64
2023-02-08T14:07:05.258Z,10.05
2023-02-08T14:10:02.746Z,10.84
2023-02-08T14:13:16.930Z,9.45
2023-02-08T14:16:21.086Z,9.84
2023-02-08T14:19:25.280Z,9.87
2023-02-08T14:22:13.711Z,9.90
2023-02-08T14:25:02.570Z,10.65
2023-02-08T14:27:55.609Z,9.83
2023-02-08T14:30:41.231Z,10.07
2023-02-08T14:33:33.301Z,9.35
2023-02-08T14:36:28.792Z,9.25
2023-02-08T14:39:26.815Z,9.86
2023-02-08T14:42:12.618Z,9.91
2023-02-08T14:44:59.709Z,9.81
2023-02-08T14:47:48.088Z,9.34
2023-02-08T14:50:38.434Z,9.80
2023-02-08T14:53:29.185Z,9.47
2023-02-08T14:56:19.539Z,9.03
2023-02-08T14:59:11.237Z,8.89
2023-02-08T15:02:00.904Z,8.74
2023-02-08T15:04:46.101Z,8.91
2023-02-08T15:07:52.374Z,8.31
2023-02-08T15:10:42.209Z,7.81
2023-02-08T15:13:29.318Z,8.86
2023-02-08T15:16:14.816Z,9.36
2023-02-08T15:19:02.498Z,9.44
2023-02-08T15:21:47.800Z,8.98
2023-02-08T15:24:33.362Z,9.46
2023-02-08T15:27:28.087Z,8.89
2023-02-08T15:30:37.571Z,9.04
2023-02-08T15:33:22.727Z,8.68
2023-02-08T15:36:16.833Z,8.32
2023-02-08T15:39:09.597Z,7.70
2023-02-08T15:41:59.027Z,7.90
2023-02-08T15:44:44.516Z,7.74
2023-02-08T15:47:32.881Z,7.53
2023-02-08T15:50:21.837Z,7.48
2023-02-08T15:53:12.853Z,7.07
2023-02-08T15:56:03.768Z,6.69
2023-02-08T15:58:53.757Z,6.27
2023-02-08T16:01:39.069Z,6.09
2023-02-08T16:04:25.816Z,6.27
2023-02-08T16:07:22.714Z,6.20
2023-02-08T16:10:21.578Z,5.96
2023-02-08T16:13:17.756Z,5.90
2023-02-08T16:16:24.908Z,5.88
2023-02-08T16:19:30.966Z,5.69
2023-02-08T16:22:25.406Z,5.43
2023-02-08T16:25:35.168Z,5.38
2023-02-08T16:28:32.267Z,5.29
2023-02-08T16:31:21.773Z,5.19
2023-02-08T16:34:35.001Z,4.98
2023-02-08T16:37:35.053Z,4.87
2023-02-08T16:40:45.827Z,4.90
2023-02-08T16:43:32.475Z,5.02
2023-02-08T16:46:20.447Z,5.03
2023-02-08T16:49:08.471Z,4.88
2023-02-08T16:52:00.234Z,4.81
2023-02-08T16:54:45.581Z,4.67
2023-02-08T16:57:45.674Z,4.52
2023-02-08T17:00:36.172Z,4.46
2023-02-08T17:03:22.827Z,4.18
2023-02-08T17:06:20.311Z,3.88
2023-02-08T17:09:07.321Z,3.92
2023-02-08T17:11:52.327Z,3.88
2023-02-08T17:14:37.759Z,3.92
2023-02-08T17:17:23.148Z,3.82
2023-02-08T17:20:21.784Z,3.97
2023-02-08T17:23:07.551Z,3.92
2023-02-08T17:25:52.979Z,3.70
2023-02-08T17:28:42.622Z,3.57
2023-02-08T17:31:28.515Z,3.48
2023-02-08T17:34:14.012Z,3.42
2023-02-08T17:36:59.128Z,3.32
2023-02-08T17:39:44.737Z,3.17
2023-02-08T17:42:29.710Z,3.26
2023-02-08T17:45:15.169Z,3.25
2023-02-08T17:48:03.267Z,3.20
2023-02-08T17:50:49.756Z,3.15
2023-02-08T17:53:34.824Z,3.02
2023-02-08T17:56:23.109Z,2.99
2023-02-08T17:59:08.007Z,2.99
2023-02-08T18:01:53.541Z,2.97
2023-02-08T18:04:38.855Z,2.97
2023-02-08T18:07:24.291Z,2.82
2023-02-08T18:10:11.382Z,2.66
2023-02-08T18:12:56.494Z,2.61
2023-02-08T18:15:41.813Z,2.76
2023-02-08T18:18:27.261Z,2.62
2023-02-08T18:21:18.030Z,2.66
2023-02-08T18:24:05.027Z,2.58
2023-02-08T18:26:50.534Z,2.51
2023-02-08T18:29:35.484Z,2.51
2023-02-08T18:32:20.902Z,2.53
2023-02-08T18:35:07.927Z,2.30
2023-02-08T18:37:53.254Z,2.28
2023-02-08T18:40:40.754Z,2.19
2023-02-08T18:43:28.915Z,1.98
2023-02-08T18:46:19.671Z,2.01
2023-02-08T18:49:04.658Z,2.13
2023-02-08T18:51:50.127Z,1.92
2023-02-08T18:54:35.032Z,1.98
2023-02-08T18:57:24.004Z,1.91
2023-02-08T19:00:11.633Z,1.93
2023-02-08T19:02:56.569Z,1.97
2023-02-08T19:05:42.502Z,1.90
2023-02-08T19:08:27.602Z,1.83
2023-02-08T19:11:16.381Z,1.88
2023-02-08T19:14:04.438Z,1.97
2023-02-08T19:16:49.948Z,1.89
2023-02-08T19:19:36.080Z,1.89
2023-02-08T19:22:21.441Z,1.98
2023-02-08T19:25:07.205Z,2.05
2023-02-08T19:27:52.728Z,1.98
2023-02-08T19:30:38.847Z,2.11
2023-02-08T19:33:24.148Z,2.06
2023-02-08T19:36:15.566Z,1.94
2023-02-08T19:39:02.013Z,1.88
2023-02-08T19:41:47.464Z,1.86
2023-02-08T19:44:32.747Z,1.70
2023-02-08T19:47:18.215Z,1.63
2023-02-08T19:50:04.625Z,1.64
2023-02-08T19:52:49.668Z,1.63
2023-02-08T19:55:38.594Z,1.67
2023-02-08T19:58:23.945Z,1.59
2023-02-08T20:01:13.219Z,1.63
2023-02-08T20:04:00.918Z,1.66
2023-02-08T20:06:51.401Z,1.66
2023-02-08T20:09:36.547Z,1.37
2023-02-08T20:12:24.495Z,1.20
2023-02-08T20:15:09.851Z,1.18
2023-02-08T20:17:54.845Z,1.16
2023-02-08T20:20:41.260Z,1.38
2023-02-08T20:23:27.116Z,1.43
2023-02-08T20:26:13.585Z,1.28
2023-02-08T20:28:59.020Z,1.16
2023-02-08T20:31:45.910Z,0.98
2023-02-08T20:34:34.308Z,1.01
2023-02-08T20:37:19.542Z,1.00
2023-02-08T20:40:05.493Z,1.05
2023-02-08T20:42:50.927Z,0.94
2023-02-08T20:45:36.200Z,0.83
2023-02-08T20:48:21.098Z,0.82
2023-02-08T20:51:27.518Z,0.79
2023-02-08T20:54:12.459Z,0.75
2023-02-08T20:56:57.918Z,0.69
2023-02-08T20:59:45.668Z,0.57
2023-02-08T21:02:30.971Z,0.53
2023-02-08T21:05:16.177Z,0.47
2023-02-08T21:08:04.484Z,0.42
2023-02-08T21:10:49.566Z,0.36
2023-02-08T21:13:35.274Z,0.42
2023-02-08T21:16:21.129Z,0.41
2023-02-08T21:19:06.598Z,0.34
2023-02-08T21:22:00.536Z,0.47
2023-02-08T21:24:45.656Z,0.50
2023-02-08T21:27:30.492Z,0.43
2023-02-08T21:30:15.333Z,0.48
2023-02-08T21:33:00.822Z,0.47
2023-02-08T21:35:46.074Z,0.37
2023-02-08T21:38:31.344Z,0.21
2023-02-08T21:41:25.517Z,0.10
2023-02-08T21:44:11.295Z,-0.07
2023-02-08T21:46:56.546Z,-0.07
2023-02-08T21:49:42.159Z,-0.29
2023-02-08T21:52:27.539Z,-0.27
2023-02-08T21:55:12.968Z,-0.78
2023-02-08T21:57:57.867Z,-0.88
2023-02-08T22:00:43.611Z,-0.92
2023-02-08T22:03:28.790Z,-0.92
2023-02-08T22:06:14.217Z,-0.74
2023-02-08T22:08:59.584Z,-0.86
2023-02-08T22:11:45.075Z,-0.88
2023-02-08T22:14:36.866Z,-1.25
2023-02-08T22:17:21.888Z,-1.21
2023-02-08T22:20:11.591Z,-1.29
2023-02-08T22:22:56.733Z,-1.57
2023-02-08T22:25:41.894Z,-1.60
2023-02-08T22:28:27.187Z,-1.75
2023-02-08T22:31:14.265Z,-1.58
2023-02-08T22:33:59.342Z,-1.71
2023-02-08T22:36:44.239Z,-1.61
2023-02-08T22:39:30.464Z,-1.61
2023-02-08T22:42:15.940Z,-1.67
2023-02-08T22:45:01.331Z,-1.66
2023-02-08T22:47:46.770Z,-1.57
2023-02-08T22:50:31.564Z,-1.35
2023-02-08T22:53:18.072Z,-1.53
2023-02-08T22:56:05.013Z,-1.52
2023-02-08T22:58:50.338Z,-1.55
2023-02-08T23:01:35.619Z,-1.73
2023-02-08T23:04:20.480Z,-1.69
2023-02-08T23:07:05.483Z,-1.83
2023-02-08T23:09:50.791Z,-1.94
2023-02-08T23:12:35.697Z,-2.05
2023-02-08T23:15:21.143Z,-2.02
2023-02-08T23:18:07.471Z,-2.08
2023-02-08T23:20:52.846Z,-1.83
2023-02-08T23:23:38.676Z,-1.74
2023-02-08T23:26:24.367Z,-1.73
2023-02-08T23:29:09.894Z,-1.89
2023-02-08T23:31:55.133Z,-2.01
2023-02-08T23:34:40.597Z,-2.14
2023-02-08T23:37:25.492Z,-2.09
2023-02-08T23:40:11.467Z,-2.04
2023-02-08T23:42:57.094Z,-1.97
2023-02-08T23:45:42.330Z,-1.97
2023-02-08T23:48:27.547Z,-1.90
2023-02-08T23:51:14.193Z,-2.18
2023-02-08T23:53:59.359Z,-2.44
2023-02-08T23:56:46.250Z,-2.58
2023-02-08T23:59:32.488Z,-2.66
